Time;durP1;ratioP1;P1;durP2;ratioP2;P2;SDS_P1;SDS_P2;PMS_P1;PMS_P2;Temp;Humidity;BMP_temperature;BMP_pressure;BME280_temperature;BME280_humidity;BME280_pressure;Samples;Min_cycle;Max_cycle;Signal;HPM_P1;HPM_P2
2023/01/26 00:01:14;;;;;;;7.57;4.78;;;8.40;69.10;;;;;;6215795;23;20001;-76
2023/01/26 00:03:41;;;;;;;7.00;4.65;;;8.40;69.10;;;;;;6216214;23;20012;-76
2023/01/26 00:06:09;;;;;;;6.03;4.75;;;8.40;69.10;;;;;;6216073;23;20008;-77
2023/01/26 00:08:39;;;;;;;7.00;4.47;;;8.40;69.00;;;;;;6215816;23;20084;-76
2023/01/26 00:11:05;;;;;;;;;;;8.40;69.10;;;;;;6216892;23;20000;-77
2023/01/26 00:13:32;;;;;;;8.27;5.50;;;8.40;69.10;;;;;;6190113;23;19954;-76
2023/01/26 00:15:58;;;;;;;9.10;5.30;;;8.40;69.10;;;;;;6188234;23;20002;-76
2023/01/26 00:18:24;;;;;;;9.07;5.53;;;8.40;69.20;;;;;;6216510;23;20055;-76
2023/01/26 00:20:56;;;;;;;10.25;5.32;;;8.30;68.60;;;;;;6216049;23;20004;-76
2023/01/26 00:23:22;;;;;;;10.73;6.70;;;8.30;69.20;;;;;;6216495;23;20011;-76
2023/01/26 00:25:47;;;;;;;9.25;5.50;;;8.30;69.20;;;;;;6188706;23;20087;-76
2023/01/26 00:28:13;;;;;;;11.18;6.00;;;8.30;69.40;;;;;;6216108;23;20005;-76
2023/01/26 00:30:39;;;;;;;8.10;5.82;;;8.30;69.30;;;;;;6216113;23;20363;-77
2023/01/26 00:33:04;;;;;;;8.38;6.03;;;8.30;69.10;;;;;;6216295;23;20395;-76
2023/01/26 00:35:30;;;;;;;10.77;6.80;;;8.40;69.20;;;;;;6213742;23;20010;-76
2023/01/26 00:37:56;;;;;;;11.63;7.53;;;8.30;69.10;;;;;;6213247;23;20005;-76
2023/01/26 00:40:21;;;;;;;9.93;6.53;;;8.30;69.00;;;;;;6188178;23;20431;-76
2023/01/26 00:42:47;;;;;;;9.43;6.18;;;8.30;69.10;;;;;;6188113;23;20008;-76
2023/01/26 00:45:13;;;;;;;8.15;5.43;;;8.30;69.30;;;;;;6188285;23;20018;-77
2023/01/26 00:47:38;;;;;;;10.38;6.07;;;8.20;68.90;;;;;;6215664;23;20047;-76
2023/01/26 00:50:05;;;;;;;10.93;5.90;;;8.20;69.30;;;;;;6215984;23;20011;-76
2023/01/26 00:52:31;;;;;;;9.98;6.18;;;8.20;69.40;;;;;;6216223;23;19997;-76
2023/01/26 00:54:56;;;;;;;9.38;5.13;;;8.20;69.30;;;;;;6214676;23;19997;-76
2023/01/26 00:57:22;;;;;;;9.27;5.95;;;8.20;69.40;;;;;;6216056;23;20008;-76
2023/01/26 00:59:48;;;;;;;8.60;5.20;;;8.20;69.50;;;;;;6215863;23;20005;-76
2023/01/26 01:02:13;;;;;;;8.00;4.93;;;8.20;69.50;;;;;;6215714;23;20007;-77
2023/01/26 01:04:39;;;;;;;6.85;4.32;;;8.20;69.60;;;;;;6215686;23;20016;-77
2023/01/26 01:07:10;;;;;;;6.95;4.38;;;8.20;69.60;;;;;;6215907;23;20009;-76
2023/01/26 01:09:36;;;;;;;7.63;4.45;;;8.20;69.60;;;;;;6215603;23;19996;-76
2023/01/26 01:12:02;;;;;;;6.70;4.55;;;8.10;69.50;;;;;;6216079;23;20004;-78
2023/01/26 01:14:27;;;;;;;9.30;5.45;;;8.10;69.40;;;;;;6215152;23;20050;-78
2023/01/26 01:16:53;;;;;;;7.50;4.53;;;8.10;69.50;;;;;;6215077;23;20487;-77
2023/01/26 01:19:19;;;;;;;6.90;4.43;;;8.00;69.70;;;;;;6215016;23;20482;-76
2023/01/26 01:21:44;;;;;;;9.18;4.88;;;7.90;69.70;;;;;;6215377;23;20076;-76
2023/01/26 01:24:11;;;;;;;9.25;5.10;;;7.90;69.90;;;;;;6215303;23;20438;-76
2023/01/26 01:26:37;;;;;;;7.35;4.65;;;7.80;70.00;;;;;;6215385;23;19996;-76
2023/01/26 01:29:04;;;;;;;7.20;4.72;;;7.90;70.10;;;;;;6215109;23;20012;-76
2023/01/26 01:31:29;;;;;;;8.18;4.82;;;7.80;70.10;;;;;;6215598;23;19997;-76
2023/01/26 01:33:56;;;;;;;7.50;4.18;;;7.80;70.20;;;;;;6215666;23;20007;-76
2023/01/26 01:36:23;;;;;;;8.98;5.45;;;7.80;70.30;;;;;;6214743;23;19997;-76
2023/01/26 01:38:49;;;;;;;7.18;4.38;;;7.80;70.40;;;;;;6215409;23;20068;-76
2023/01/26 01:41:18;;;;;;;6.57;4.80;;;7.70;70.40;;;;;;6189219;23;20008;-75
2023/01/26 01:43:45;;;;;;;7.72;4.75;;;7.80;70.50;;;;;;6215270;23;20001;-75
2023/01/26 01:46:32;;;;;;;8.60;4.90;;;7.80;70.60;;;;;;6214290;23;20067;-75
2023/01/26 01:49:23;;;;;;;6.53;4.25;;;7.80;70.60;;;;;;6188692;23;20008;-76
2023/01/26 01:52:11;;;;;;;8.40;4.32;;;7.80;70.60;;;;;;6213971;23;20438;-75
2023/01/26 01:54:51;;;;;;;6.07;4.05;;;7.80;70.40;;;;;;6187882;23;20054;-75
2023/01/26 01:57:28;;;;;;;7.55;4.70;;;7.90;70.50;;;;;;6188681;23;20012;-75
2023/01/26 02:00:04;;;;;;;8.52;5.20;;;7.80;70.20;;;;;;6188969;23;20005;-75
2023/01/26 02:02:30;;;;;;;7.72;4.93;;;7.80;70.00;;;;;;6188383;23;20004;-76
2023/01/26 02:05:02;;;;;;;7.82;5.25;;;7.80;70.20;;;;;;6214586;23;20300;-76
2023/01/26 02:07:29;;;;;;;7.80;4.60;;;7.80;70.10;;;;;;6188315;23;20008;-76
2023/01/26 02:12:40;;;;;;;6.13;3.80;;;7.80;70.10;;;;;;6215381;23;20016;-77
2023/01/26 02:15:08;;;;;;;7.30;4.30;;;7.80;70.20;;;;;;6214427;23;19997;-76
2023/01/26 02:17:33;;;;;;;9.63;5.13;;;7.80;70.00;;;;;;6215193;23;20007;-76
2023/01/26 02:20:21;;;;;;;7.72;4.10;;;7.80;69.90;;;;;;6215248;23;20001;-76
2023/01/26 02:23:02;;;;;;;7.30;4.40;;;7.90;69.80;;;;;;6215596;23;20449;-76
2023/01/26 02:25:56;;;;;;;6.82;4.10;;;7.90;69.90;;;;;;6186784;23;20011;-75
2023/01/26 02:28:24;;;;;;;7.63;4.82;;;7.80;69.80;;;;;;6196349;23;20005;-75
2023/01/26 02:30:52;;;;;;;7.28;4.63;;;7.70;69.90;;;;;;6214650;23;20001;-76
2023/01/26 02:33:19;;;;;;;6.90;4.60;;;7.70;70.10;;;;;;6188207;23;20081;-76
2023/01/26 02:35:45;;;;;;;8.80;5.75;;;7.70;70.20;;;;;;6214727;23;19997;-76
2023/01/26 02:38:11;;;;;;;6.65;4.18;;;7.70;70.30;;;;;;6214589;23;20005;-75
2023/01/26 02:40:46;;;;;;;6.13;4.40;;;7.70;70.40;;;;;;6214995;23;20427;-76
2023/01/26 02:43:12;;;;;;;8.40;4.60;;;7.60;70.50;;;;;;6214318;23;20005;-76
2023/01/26 02:45:44;;;;;;;8.15;4.93;;;7.60;70.80;;;;;;6214897;23;20001;-76
2023/01/26 02:51:09;;;;;;;6.50;4.13;;;7.70;70.70;;;;;;6214395;23;20055;-76
2023/01/26 02:53:35;;;;;;;8.15;5.32;;;7.70;70.70;;;;;;6188753;23;20470;-78
2023/01/26 02:56:01;;;;;;;8.27;5.30;;;7.60;70.50;;;;;;6187986;23;20367;-78
2023/01/26 02:58:27;;;;;;;8.63;5.28;;;7.60;70.60;;;;;;6214710;23;20011;-78
2023/01/26 03:00:52;;;;;;;8.57;5.45;;;7.50;70.80;;;;;;6214352;23;20075;-76
2023/01/26 03:03:40;;;;;;;8.52;5.40;;;7.40;70.80;;;;;;6214752;23;20087;-76
2023/01/26 03:06:11;;;;;;;10.32;5.93;;;7.50;71.00;;;;;;6214381;23;20356;-76
2023/01/26 03:08:37;;;;;;;10.20;6.72;;;7.40;70.90;;;;;;6189742;23;20040;-76
2023/01/26 03:11:04;;;;;;;11.55;6.78;;;7.30;70.90;;;;;;6215008;23;20005;-76
2023/01/26 03:13:31;;;;;;;10.07;6.65;;;7.10;71.20;;;;;;6188223;23;20011;-76
2023/01/26 03:16:01;;;;;;;8.77;5.78;;;7.10;71.60;;;;;;6214025;23;20369;-77
2023/01/26 03:29:29;;;;;;;10.65;6.60;;;7.00;71.70;;;;;;6215268;23;20016;-77
2023/01/26 03:31:55;;;;;;;8.77;5.78;;;7.00;71.90;;;;;;6214541;23;20083;-77
2023/01/26 03:34:22;;;;;;;10.32;6.05;;;7.10;71.90;;;;;;6214131;23;20028;-77
2023/01/26 03:36:48;;;;;;;9.43;6.07;;;7.10;71.90;;;;;;6214526;23;20028;-78
2023/01/26 03:41:06;;;;;;;8.68;6.00;;;7.20;71.80;;;;;;6214623;23;20295;-78
2023/01/26 03:58:31;;;;;;;9.43;5.15;;;7.40;70.70;;;;;;6215749;23;20066;-76
2023/01/26 04:00:56;;;;;;;9.32;6.03;;;7.30;70.30;;;;;;6216732;23;20412;-76
2023/01/26 04:08:50;;;;;;;9.43;5.68;;;7.40;70.40;;;;;;6215875;23;20020;-76
2023/01/26 04:11:16;;;;;;;8.43;4.80;;;7.40;70.30;;;;;;6189905;23;20004;-76
2023/01/26 04:21:55;;;;;;;9.60;5.40;;;7.50;69.80;;;;;;6216595;23;20058;-77
2023/01/26 04:24:21;;;;;;;8.10;5.28;;;7.50;70.00;;;;;;6188601;23;20374;-77
2023/01/26 04:26:47;;;;;;;8.48;5.78;;;7.50;70.10;;;;;;6188863;23;20055;-77
2023/01/26 04:29:14;;;;;;;9.80;5.18;;;7.60;70.10;;;;;;6216049;23;20008;-77
2023/01/26 04:31:41;;;;;;;8.82;5.60;;;7.60;70.00;;;;;;6215983;23;20001;-77
2023/01/26 04:34:12;;;;;;;8.60;5.72;;;7.50;69.50;;;;;;6215814;23;20035;-77
2023/01/26 04:36:38;;;;;;;11.38;6.88;;;7.50;70.00;;;;;;6214689;23;20001;-77
2023/01/26 04:39:04;;;;;;;10.02;6.20;;;7.40;70.00;;;;;;6215511;23;20095;-77
2023/01/26 04:41:31;;;;;;;10.98;7.18;;;7.30;70.30;;;;;;6216227;23;20005;-77
2023/01/26 04:43:57;;;;;;;10.07;6.30;;;7.30;70.70;;;;;;6216489;23;20012;-77
2023/01/26 04:46:23;;;;;;;14.70;8.35;;;7.20;71.10;;;;;;6215375;23;20082;-78
2023/01/26 04:48:49;;;;;;;11.38;7.38;;;7.20;71.80;;;;;;6189096;23;20009;-78
2023/01/26 04:51:18;;;;;;;11.77;7.72;;;7.10;72.00;;;;;;6216050;23;20292;-78
2023/01/26 04:53:44;;;;;;;11.90;6.70;;;7.10;71.90;;;;;;6215980;23;20006;-78
2023/01/26 04:56:26;;;;;;;11.98;7.78;;;7.00;71.80;;;;;;6215497;23;20059;-78
2023/01/26 04:58:52;;;;;;;12.05;7.30;;;7.10;72.60;;;;;;6215427;23;20058;-78
2023/01/26 05:01:18;;;;;;;10.30;6.95;;;7.10;72.60;;;;;;6215925;23;20059;-77
2023/01/26 05:03:45;;;;;;;12.05;7.30;;;7.10;72.90;;;;;;6216012;23;20004;-77
2023/01/26 05:06:10;;;;;;;10.70;6.82;;;7.10;72.80;;;;;;6215038;23;20004;-77
2023/01/26 05:08:37;;;;;;;11.73;7.43;;;7.10;72.90;;;;;;6187896;23;20016;-77
2023/01/26 05:11:03;;;;;;;13.43;8.82;;;7.10;72.90;;;;;;6214727;23;20030;-77
2023/01/26 05:13:28;;;;;;;11.52;7.57;;;7.10;73.10;;;;;;6188625;23;20474;-75
2023/01/26 05:15:54;;;;;;;11.93;7.95;;;7.00;73.20;;;;;;6214844;23;20072;-76
2023/01/26 05:18:20;;;;;;;11.32;7.40;;;;;;;;;;6214794;23;20008;-76
2023/01/26 05:20:46;;;;;;;11.07;7.75;;;6.90;73.10;;;;;;6215341;23;20000;-75
2023/01/26 05:23:26;;;;;;;12.40;7.60;;;6.90;74.20;;;;;;6215440;23;20076;-75
2023/01/26 05:25:52;;;;;;;11.70;7.90;;;6.90;73.70;;;;;;6214134;23;20008;-75
2023/01/26 05:28:18;;;;;;;11.35;7.35;;;6.90;73.70;;;;;;6214457;23;20004;-76
2023/01/26 05:30:45;;;;;;;11.77;7.25;;;6.80;74.10;;;;;;6214912;23;20000;-75
2023/01/26 05:33:11;;;;;;;13.63;7.70;;;6.80;74.60;;;;;;6214426;23;20009;-75
2023/01/26 05:35:36;;;;;;;11.52;7.40;;;6.80;74.00;;;;;;6214727;23;20023;-75
2023/01/26 05:38:08;;;;;;;9.57;6.80;;;6.80;74.10;;;;;;6214141;23;20059;-76
2023/01/26 05:40:34;;;;;;;11.73;7.38;;;6.90;74.10;;;;;;6212996;23;20008;-75
2023/01/26 05:42:59;;;;;;;11.50;7.30;;;6.90;74.10;;;;;;6213967;23;20001;-75
2023/01/26 05:45:25;;;;;;;12.25;7.43;;;7.00;74.10;;;;;;6215464;23;20500;-75
2023/01/26 05:47:51;;;;;;;10.80;7.10;;;7.00;73.40;;;;;;6213358;23;20035;-75
2023/01/26 05:50:17;;;;;;;12.05;7.53;;;7.10;73.80;;;;;;6215006;23;20387;-75
2023/01/26 05:52:48;;;;;;;10.18;7.05;;;7.00;73.80;;;;;;6212813;23;20326;-75
2023/01/26 05:55:14;;;;;;;10.75;7.45;;;6.90;73.80;;;;;;6213737;23;20385;-75
2023/01/26 05:57:40;;;;;;;12.75;8.30;;;6.90;74.00;;;;;;6212934;23;20012;-75
2023/01/26 06:00:07;;;;;;;12.50;7.80;;;6.90;74.00;;;;;;6215104;23;20438;-75
2023/01/26 06:02:32;;;;;;;16.23;9.25;;;6.80;74.30;;;;;;6188179;23;20008;-75
2023/01/26 06:04:58;;;;;;;14.55;8.32;;;6.50;75.00;;;;;;6214114;23;20005;-75
2023/01/26 06:07:25;;;;;;;16.08;8.82;;;6.50;75.20;;;;;;6215043;23;20070;-76
2023/01/26 06:09:51;;;;;;;18.77;10.57;;;6.40;75.70;;;;;;6215372;23;19997;-76
2023/01/26 06:12:18;;;;;;;12.80;8.80;;;6.30;76.00;;;;;;6215207;23;19997;-76
2023/01/26 06:14:44;;;;;;;11.65;7.72;;;6.30;76.80;;;;;;6214724;23;20005;-77
2023/01/26 06:17:11;;;;;;;12.95;8.02;;;6.30;75.80;;;;;;6214505;23;20055;-77
2023/01/26 06:19:42;;;;;;;11.50;7.70;;;6.30;76.10;;;;;;6215030;23;20058;-76
2023/01/26 06:22:09;;;;;;;13.85;8.38;;;6.30;76.10;;;;;;6214782;23;20004;-75
2023/01/26 06:24:35;;;;;;;14.73;8.20;;;6.40;75.90;;;;;;6214436;23;20007;-76
2023/01/26 06:27:01;;;;;;;13.55;7.85;;;6.60;75.40;;;;;;6217983;22;20016;-76
2023/01/26 06:29:27;;;;;;;13.52;8.00;;;6.60;75.90;;;;;;6244936;23;20008;-76
2023/01/26 06:31:53;;;;;;;11.82;7.40;;;6.60;75.70;;;;;;6245403;23;20007;-76
2023/01/26 06:34:18;;;;;;;12.75;7.95;;;6.70;75.70;;;;;;6245368;23;20000;-74
2023/01/26 06:36:44;;;;;;;12.93;7.80;;;6.80;75.50;;;;;;6243978;23;20000;-74
2023/01/26 06:39:11;;;;;;;13.45;8.68;;;6.80;75.30;;;;;;6242670;23;20031;-74
2023/01/26 06:41:37;;;;;;;10.30;7.07;;;6.80;75.30;;;;;;6243231;23;20063;-74
2023/01/26 06:44:03;;;;;;;11.63;7.38;;;6.80;75.20;;;;;;6244373;23;20431;-75
2023/01/26 06:46:29;;;;;;;12.65;7.05;;;6.80;75.20;;;;;;6245553;23;20000;-74
2023/01/26 06:48:54;;;;;;;13.00;7.60;;;6.90;75.10;;;;;;6245552;23;20004;-75
2023/01/26 06:51:20;;;;;;;13.57;7.22;;;6.90;75.00;;;;;;6245281;23;19996;-75
2023/01/26 06:53:57;;;;;;;10.85;6.93;;;6.90;74.70;;;;;;6245535;23;20002;-73
2023/01/26 06:56:24;;;;;;;12.50;7.22;;;6.90;74.90;;;;;;6245110;23;19996;-73
2023/01/26 06:58:50;;;;;;;10.70;7.18;;;6.90;75.10;;;;;;6245299;23;20004;-72
2023/01/26 07:01:18;;;;;;;12.15;6.65;;;7.00;75.10;;;;;;6217797;23;20005;-72
2023/01/26 07:03:50;;;;;;;9.43;6.82;;;6.90;75.10;;;;;;6244517;23;20011;-76
2023/01/26 07:06:28;;;;;;;13.27;7.72;;;7.00;74.80;;;;;;6217542;23;20008;-76
2023/01/26 07:08:53;;;;;;;10.88;7.43;;;7.00;74.80;;;;;;6218767;23;20012;-77
2023/01/26 07:11:20;;;;;;;12.18;7.70;;;7.00;74.70;;;;;;6244954;23;20000;-74
2023/01/26 07:13:46;;;;;;;11.00;7.28;;;6.90;75.10;;;;;;6245374;23;20000;-74
2023/01/26 07:16:14;;;;;;;11.15;7.32;;;7.00;74.90;;;;;;6245474;23;20027;-74
2023/01/26 07:18:40;;;;;;;10.80;7.07;;;7.00;74.70;;;;;;6247582;23;20011;-74
2023/01/26 07:21:10;;;;;;;11.07;7.70;;;7.00;74.60;;;;;;6246711;23;20004;-74
2023/01/26 07:23:35;;;;;;;11.27;7.47;;;7.10;74.70;;;;;;6246725;23;20000;-76
2023/01/26 07:26:01;;;;;;;14.60;7.93;;;7.10;74.50;;;;;;6246507;23;20007;-76
2023/01/26 07:28:29;;;;;;;13.45;9.00;;;7.10;74.50;;;;;;6246207;23;20008;-77
2023/01/26 07:30:58;;;;;;;11.65;7.70;;;7.10;74.20;;;;;;6245831;23;20008;-77
2023/01/26 07:33:24;;;;;;;11.75;7.05;;;7.10;74.40;;;;;;6219028;23;20027;-77
2023/01/26 07:35:54;;;;;;;14.55;7.63;;;7.10;74.50;;;;;;6246668;23;20421;-77
2023/01/26 07:38:20;;;;;;;12.38;7.45;;;7.10;75.00;;;;;;6247089;23;20000;-77
2023/01/26 07:40:46;;;;;;;10.80;7.43;;;7.00;74.40;;;;;;6220360;23;20329;-77
2023/01/26 07:43:13;;;;;;;11.73;7.50;;;7.00;74.50;;;;;;6247356;23;20007;-76
2023/01/26 07:45:39;;;;;;;15.32;8.07;;;7.00;74.40;;;;;;6247630;23;20126;-76
2023/01/26 07:48:05;;;;;;;13.32;7.70;;;7.10;74.60;;;;;;6220271;23;20031;-78
2023/01/26 07:50:57;;;;;;;12.55;8.23;;;7.10;74.00;;;;;;6245827;23;20063;-77
2023/01/26 07:53:25;;;;;;;20.52;8.65;;;7.10;74.00;;;;;;6217874;23;20008;-78
2023/01/26 07:55:50;;;;;;;12.13;7.35;;;7.20;74.70;;;;;;6246441;23;20020;-77
2023/01/26 07:58:19;;;;;;;13.45;7.97;;;7.20;74.00;;;;;;6247328;23;20432;-77
2023/01/26 08:00:48;;;;;;;11.73;7.50;;;7.20;74.90;;;;;;6246793;23;20000;-77
2023/01/26 08:03:14;;;;;;;13.68;8.10;;;7.20;73.60;;;;;;6218636;23;20012;-77
2023/01/26 08:05:39;;;;;;;15.65;8.32;;;7.10;73.50;;;;;;6246518;23;20027;-77
2023/01/26 08:08:05;;;;;;;10.60;6.38;;;7.10;73.50;;;;;;6246467;23;20004;-77
2023/01/26 08:10:31;;;;;;;11.85;7.40;;;7.00;73.40;;;;;;6246106;23;20011;-77
2023/01/26 08:13:00;;;;;;;13.88;7.88;;;7.00;73.60;;;;;;6245543;23;20000;-77
2023/01/26 08:15:27;;;;;;;12.57;8.02;;;7.10;73.60;;;;;;6246701;23;19992;-76
2023/01/26 08:17:53;;;;;;;12.50;8.13;;;7.10;74.10;;;;;;6246534;23;20062;-77
2023/01/26 08:20:19;;;;;;;11.25;7.32;;;7.20;73.50;;;;;;6246444;23;20004;-76
2023/01/26 08:22:45;;;;;;;13.82;7.72;;;7.20;73.50;;;;;;6247310;23;20083;-76
2023/01/26 08:25:10;;;;;;;10.25;6.50;;;7.30;73.40;;;;;;6246295;23;20007;-76
2023/01/26 08:27:36;;;;;;;13.10;7.75;;;7.30;72.80;;;;;;6227597;23;20016;-77
2023/01/26 08:30:02;;;;;;;11.82;7.22;;;7.40;72.70;;;;;;6246300;23;20452;-77
2023/01/26 08:32:29;;;;;;;14.07;7.22;;;7.40;70.50;;;;;;6240223;23;20000;-77
2023/01/26 08:34:54;;;;;;;9.18;6.53;;;7.50;72.00;;;;;;6246209;23;20004;-77
2023/01/26 08:37:20;;;;;;;11.35;6.72;;;7.50;72.10;;;;;;6246865;23;20091;-76
2023/01/26 08:39:46;;;;;;;10.05;6.22;;;7.60;71.20;;;;;;6245186;23;20043;-77
2023/01/26 08:42:11;;;;;;;10.45;6.20;;;7.70;71.80;;;;;;6246714;23;20005;-77
2023/01/26 08:44:37;;;;;;;10.13;6.28;;;7.80;71.80;;;;;;6246424;23;20001;-77
2023/01/26 08:47:03;;;;;;;11.70;6.53;;;7.90;71.40;;;;;;6245724;23;20741;-77
2023/01/26 08:49:28;;;;;;;12.88;6.28;;;7.90;71.10;;;;;;6247062;23;20428;-77
2023/01/26 08:51:54;;;;;;;10.40;6.35;;;8.00;71.10;;;;;;6245962;23;20000;-77
2023/01/26 08:54:20;;;;;;;9.25;5.82;;;8.20;70.40;;;;;;6246010;23;20006;-77
2023/01/26 08:56:45;;;;;;;11.32;7.00;;;8.30;70.10;;;;;;6246865;23;19997;-77
2023/01/26 08:59:11;;;;;;;8.75;5.38;;;8.30;67.80;;;;;;6246597;23;20004;-77
2023/01/26 09:01:36;;;;;;;8.93;5.57;;;8.40;68.90;;;;;;6246878;23;20422;-77
2023/01/26 09:04:02;;;;;;;8.63;5.63;;;8.40;67.00;;;;;;6246728;23;20437;-77
2023/01/26 09:06:29;;;;;;;10.48;5.57;;;8.50;66.90;;;;;;6245808;23;20506;-77
2023/01/26 09:08:54;;;;;;;7.78;4.88;;;8.40;65.40;;;;;;6246429;23;20088;-77
2023/01/26 09:11:20;;;;;;;8.23;4.60;;;8.60;67.10;;;;;;6246285;23;20020;-77
2023/01/26 09:13:55;;;;;;;6.78;4.60;;;8.80;67.30;;;;;;6246638;23;20382;-77
2023/01/26 09:16:22;;;;;;;7.60;4.70;;;8.90;64.80;;;;;;6246314;23;20000;-77
2023/01/26 09:18:52;;;;;;;7.90;4.75;;;9.10;65.90;;;;;;6246058;23;20035;-77
2023/01/26 09:21:18;;;;;;;6.78;4.65;;;9.20;65.00;;;;;;6246023;23;20000;-77
2023/01/26 09:23:44;;;;;;;10.35;4.35;;;9.40;65.00;;;;;;6246300;23;20027;-79
2023/01/26 09:26:09;;;;;;;10.05;5.97;;;9.50;64.40;;;;;;6245137;23;20093;-78
2023/01/26 09:28:35;;;;;;;6.53;4.40;;;9.40;62.30;;;;;;6246421;23;20012;-78
2023/01/26 09:31:05;;;;;;;7.07;4.28;;;9.60;63.80;;;;;;6246619;23;20008;-78
2023/01/26 09:33:31;;;;;;;7.60;5.00;;;9.60;63.90;;;;;;6246388;23;20426;-78
2023/01/26 09:36:06;;;;;;;8.63;5.65;;;9.70;63.40;;;;;;6241290;23;20402;-78
2023/01/26 09:38:32;;;;;;;8.75;5.20;;;9.70;63.10;;;;;;6245836;23;20004;-78
2023/01/26 09:41:22;;;;;;;8.90;5.20;;;9.70;63.30;;;;;;6245450;23;20130;-78
2023/01/26 09:43:56;;;;;;;;;;;9.80;63.70;;;;;;6246706;23;20004;-74
2023/01/26 09:46:41;;;;;;;7.15;4.07;;;9.80;63.60;;;;;;6246262;23;20198;-75
2023/01/26 09:49:28;;;;;;;7.88;5.05;;;9.90;63.50;;;;;;6245789;23;20302;-74
2023/01/26 09:52:04;;;;;;;6.80;4.57;;;9.90;62.20;;;;;;6245771;23;20004;-74
2023/01/26 09:54:36;;;;;;;7.82;4.80;;;9.80;62.10;;;;;;6245868;23;20054;-74
2023/01/26 09:57:15;;;;;;;7.20;4.43;;;9.90;63.10;;;;;;6245246;23;19996;-74
2023/01/26 10:00:01;;;;;;;7.82;4.75;;;10.20;63.40;;;;;;6245652;23;20117;-74
2023/01/26 10:02:51;;;;;;;6.95;4.63;;;10.50;63.50;;;;;;6245426;23;20000;-74
2023/01/26 10:05:27;;;;;;;6.30;4.38;;;10.80;61.90;;;;;;6246220;23;20082;-74
2023/01/26 10:07:53;;;;;;;11.32;4.68;;;11.00;61.30;;;;;;6245626;23;20004;-74
2023/01/26 10:10:29;;;;;;;6.40;3.72;;;11.10;59.00;;;;;;6245472;23;20307;-74
2023/01/26 10:12:56;;;;;;;5.45;3.10;;;11.20;60.60;;;;;;6245898;23;20007;-74
2023/01/26 10:15:40;;;;;;;5.55;3.28;;;11.30;59.70;;;;;;6245656;23;19996;-74
2023/01/26 10:18:15;;;;;;;5.43;3.70;;;11.40;60.40;;;;;;6244916;23;20000;-75
2023/01/26 10:20:48;;;;;;;5.70;3.72;;;11.50;60.30;;;;;;6245284;23;20000;-75
2023/01/26 10:23:21;;;;;;;6.15;3.70;;;11.60;57.90;;;;;;6245001;23;20007;-75
2023/01/26 10:25:47;;;;;;;3.90;2.90;;;11.60;58.10;;;;;;6218606;23;20299;-74
2023/01/26 10:28:19;;;;;;;7.57;3.55;;;11.60;58.70;;;;;;6245292;23;20016;-74
2023/01/26 10:30:47;;;;;;;5.90;3.53;;;11.70;56.70;;;;;;6245379;23;20376;-75
2023/01/26 10:33:21;;;;;;;4.90;3.80;;;11.70;58.10;;;;;;6218079;23;20311;-75
2023/01/26 10:35:47;;;;;;;6.18;3.92;;;11.80;57.00;;;;;;6245783;23;20058;-74
2023/01/26 10:38:31;;;;;;;6.50;3.60;;;11.80;57.30;;;;;;6218546;23;20012;-74
2023/01/26 10:41:05;;;;;;;6.15;3.67;;;11.90;56.60;;;;;;6246242;23;20051;-74
2023/01/26 10:43:35;;;;;;;5.35;3.40;;;11.90;57.80;;;;;;6245398;23;20004;-74
2023/01/26 10:46:03;;;;;;;5.10;3.13;;;12.00;57.50;;;;;;6246049;23;20011;-74
2023/01/26 10:48:29;;;;;;;5.57;3.78;;;12.10;57.60;;;;;;6218756;23;20011;-74
2023/01/26 10:51:20;;;;;;;4.78;3.50;;;12.10;57.40;;;;;;6245795;23;20373;-74
2023/01/26 10:53:46;;;;;;;7.20;4.15;;;12.10;57.10;;;;;;6245450;23;20410;-78
2023/01/26 10:56:15;;;;;;;6.18;3.60;;;12.30;57.50;;;;;;6245537;23;20011;-78
2023/01/26 10:58:43;;;;;;;5.60;3.83;;;12.40;56.90;;;;;;6245714;23;20010;-78
2023/01/26 11:01:11;;;;;;;4.65;3.13;;;12.50;56.20;;;;;;6245001;23;20027;-78
2023/01/26 11:03:38;;;;;;;5.90;3.63;;;12.50;55.60;;;;;;6245250;23;20004;-76
2023/01/26 11:06:14;;;;;;;7.80;4.40;;;12.60;56.20;;;;;;6245325;23;20385;-78
2023/01/26 11:08:41;;;;;;;5.10;3.58;;;12.80;55.00;;;;;;6245353;23;20571;-78
2023/01/26 11:11:23;;;;;;;6.65;3.22;;;13.00;56.00;;;;;;6246358;23;20000;-78
2023/01/26 11:14:14;;;;;;;6.00;3.55;;;13.20;53.50;;;;;;6245986;23;20000;-78
2023/01/26 11:17:07;;;;;;;4.40;3.22;;;13.10;53.50;;;;;;6245938;23;20042;-78
2023/01/26 11:19:55;;;;;;;6.45;3.83;;;13.20;54.40;;;;;;6246254;23;20000;-77
2023/01/26 11:22:32;;;;;;;4.97;3.05;;;13.20;54.20;;;;;;6246106;23;20075;-77
2023/01/26 11:25:33;;;;;;;6.22;4.28;;;13.50;53.60;;;;;;6245823;23;20019;-77
2023/01/26 11:28:50;;;;;;;6.55;4.07;;;13.50;51.20;;;;;;6231252;23;20326;-78
2023/01/26 11:31:49;;;;;;;5.05;3.22;;;13.70;52.20;;;;;;6194297;23;20410;-78
2023/01/26 11:34:21;;;;;;;5.40;3.80;;;13.70;52.40;;;;;;6245705;23;20321;-76
2023/01/26 11:37:08;;;;;;;5.55;3.58;;;13.80;52.40;;;;;;6243828;23;20368;-76
2023/01/26 11:39:42;;;;;;;5.15;4.03;;;14.00;52.90;;;;;;6245710;23;20000;-77
2023/01/26 11:42:26;;;;;;;5.88;4.07;;;14.00;51.50;;;;;;6245478;23;20008;-77
2023/01/26 11:45:04;;;;;;;5.47;3.50;;;14.10;51.70;;;;;;6245175;23;20429;-76
2023/01/26 11:47:42;;;;;;;6.43;3.97;;;14.10;52.20;;;;;;6245729;23;20073;-76
2023/01/26 11:50:28;;;;;;;7.88;4.43;;;14.30;52.00;;;;;;6245585;23;19996;-76
2023/01/26 11:53:05;;;;;;;5.90;3.35;;;14.70;52.60;;;;;;6245763;23;20020;-76
2023/01/26 11:56:06;;;;;;;7.47;4.32;;;15.20;52.80;;;;;;6245948;23;20003;-76
2023/01/26 11:58:50;;;;;;;5.95;4.05;;;16.10;49.70;;;;;;6229200;23;20038;-77
2023/01/26 12:01:24;;;;;;;5.63;4.28;;;17.50;48.70;;;;;;6245360;23;20054;-77
2023/01/26 12:03:51;;;;;;;6.70;4.15;;;18.60;46.10;;;;;;6246186;22;20322;-77
2023/01/26 12:06:39;;;;;;;4.97;3.97;;;19.50;44.20;;;;;;6246972;23;20000;-77
2023/01/26 12:09:17;;;;;;;7.22;4.72;;;19.80;42.40;;;;;;6246829;23;20008;-77
2023/01/26 12:12:06;;;;;;;5.93;4.55;;;20.20;42.20;;;;;;6244961;23;20038;-77
2023/01/26 12:15:03;;;;;;;8.48;4.45;;;20.90;40.40;;;;;;6246869;23;20011;-77
2023/01/26 12:17:50;;;;;;;5.15;4.32;;;21.60;38.40;;;;;;6228939;23;20418;-77
2023/01/26 12:20:48;;;;;;;5.47;4.47;;;22.20;37.80;;;;;;6246355;23;20000;-77
2023/01/26 12:23:20;;;;;;;8.15;5.32;;;22.60;37.10;;;;;;6247190;23;20000;-77
2023/01/26 12:25:51;;;;;;;5.60;4.68;;;22.80;36.60;;;;;;6246674;23;20496;-77
2023/01/26 12:28:19;;;;;;;6.75;4.95;;;23.00;36.10;;;;;;6247287;23;20083;-77
2023/01/26 12:31:07;;;;;;;6.03;4.35;;;22.80;35.30;;;;;;6246707;23;20071;-77
2023/01/26 12:33:34;;;;;;;6.10;3.80;;;22.80;36.00;;;;;;6247112;23;20000;-77
2023/01/26 12:36:12;;;;;;;8.20;4.60;;;23.00;34.40;;;;;;6246336;23;20050;-77
2023/01/26 12:38:49;;;;;;;4.97;3.53;;;23.20;34.60;;;;;;6247114;23;20481;-76
2023/01/26 12:41:33;;;;;;;5.32;3.42;;;23.20;32.70;;;;;;6247082;23;20008;-77
2023/01/26 12:44:26;;;;;;;5.45;4.22;;;23.20;33.50;;;;;;6246563;23;20345;-77
2023/01/26 12:47:01;;;;;;;5.57;4.10;;;22.70;33.50;;;;;;6247256;23;20000;-79
2023/01/26 12:49:57;;;;;;;6.53;4.15;;;22.40;34.20;;;;;;6246034;23;20073;-78
2023/01/26 12:52:51;;;;;;;4.85;3.90;;;22.20;34.70;;;;;;6247321;23;19996;-78
2023/01/26 12:55:36;;;;;;;7.68;4.38;;;21.80;33.40;;;;;;6214586;23;20356;-78
2023/01/26 12:58:07;;;;;;;4.88;4.00;;;21.70;35.30;;;;;;6245346;23;20437;-77
2023/01/26 13:00:36;;;;;;;5.20;4.18;;;21.50;34.50;;;;;;6245692;23;20004;-77
2023/01/26 13:03:13;;;;;;;5.35;3.97;;;21.20;35.30;;;;;;6246513;23;20087;-77
2023/01/26 13:06:17;;;;;;;7.30;3.88;;;21.20;35.50;;;;;;6218008;23;20015;-77
2023/01/26 13:08:52;;;;;;;7.22;3.55;;;21.20;35.70;;;;;;6245723;23;20058;-77
2023/01/26 13:11:43;;;;;;;5.88;4.15;;;21.30;35.40;;;;;;6245821;23;20035;-77
2023/01/26 13:14:56;;;;;;;6.25;3.90;;;21.40;35.40;;;;;;6240104;23;20491;-78
2023/01/26 13:17:24;;;;;;;5.55;4.40;;;21.50;35.40;;;;;;6244754;23;20031;-77
2023/01/26 13:19:53;;;;;;;6.63;5.03;;;21.60;34.80;;;;;;6245608;23;20000;-77
2023/01/26 13:22:25;;;;;;;6.22;4.13;;;21.60;34.90;;;;;;6244280;23;20004;-77
2023/01/26 13:25:32;;;;;;;8.75;3.80;;;21.70;34.30;;;;;;6217806;23;20000;-78
2023/01/26 13:28:01;;;;;;;4.47;3.45;;;21.60;33.50;;;;;;6111016;23;20014;-77
2023/01/26 13:30:31;;;;;;;5.32;3.88;;;21.10;34.40;;;;;;6222043;22;20353;-77
2023/01/26 13:33:22;;;;;;;6.40;4.75;;;20.80;34.30;;;;;;6244446;23;20001;-77
2023/01/26 13:35:51;;;;;;;8.00;4.10;;;20.10;34.80;;;;;;6244384;23;20023;-77
2023/01/26 13:38:33;;;;;;;11.13;4.45;;;19.40;35.70;;;;;;6243327;23;20008;-77
2023/01/26 13:41:00;;;;;;;8.75;4.40;;;18.80;36.50;;;;;;6245330;23;20004;-77
2023/01/26 13:43:40;;;;;;;7.45;4.47;;;17.90;37.20;;;;;;6245510;23;20396;-77
2023/01/26 13:46:24;;;;;;;5.55;3.78;;;17.40;38.70;;;;;;6245694;23;20433;-77
2023/01/26 13:48:55;;;;;;;6.78;4.30;;;16.70;39.10;;;;;;6245564;23;20402;-76
2023/01/26 13:51:27;;;;;;;6.97;4.22;;;;;;;;;;6246261;23;20027;-77
2023/01/26 13:53:56;;;;;;;9.63;3.88;;;15.70;40.90;;;;;;6246247;23;20385;-79
2023/01/26 13:56:29;;;;;;;7.28;4.05;;;15.60;41.50;;;;;;6245574;22;20058;-76
2023/01/26 13:59:11;;;;;;;8.15;4.15;;;15.10;41.80;;;;;;6245710;23;20004;-79